Burnet, TX

9:58 PM CST on December 19, 2014 (GMT -0600)
Horseshoe Bay | Change Station
CLOSE
Current Station
Airport
Location: Horseshoe Bay,
Elevation: 1093 ft
Nearby Weather Stations

Elev 1093 ft 30.53 °N, 98.36 °W | Updated 3 minutes ago

Overcast
Overcast
49 °F
Feels Like 49 °F
N
0
Wind Variable Wind from North

Today
High -- | Low -- °F
--% Chance of Precip.
Yesterday
High -- | Low -- °F
Precip. -- in
7:25 AM 5:34 PM
Waning Crescent, 5% visible
Pressure 30.19 in
Visibility 10.0 miles
Clouds Overcast 1200 ft
Dew Point 43 °F
Humidity 82%
Rainfall 0.05 in
Snow Depth Not available.
UV 0 out of 12
Pollen 2.90 out of 12
Air Quality Not available.
Flu Activity Not available.
METAR KDZB 200355Z AUTO 00000KT 10SM OVC012 09/06 A3019 RMK AO2 T00920063

More Conditions Fewer Conditions

Pressure 30.19 in
Visibility 10.0 miles
Clouds Overcast 1200 ft
Dew Point 43 °F
Humidity 82%
Rainfall 0.05 in
Snow Depth Not available.
UV 0 out of 12
Pollen 2.90 out of 12
Air Quality Not available.
Flu Activity Not available.
METAR KDZB 200355Z AUTO 00000KT 10SM OVC012 09/06 A3019 RMK AO2 T00920063

More Conditions Fewer Conditions

10-Day Weather Forecast

Almanac

Astronomy

Dec. 19, 2014 Rise Set
Actual Time
Civil Twilight
Nautical Twilight
Astronomical Twilight
Moon
Length of Visible Light
Length of Day
Tomorrow will be .
, % of the Moon is Illuminated

Today's Extremes

State Highs State Lows

Community

WunderPhotos

Upload Photos

1,779,126 photos uploaded!

WunderBlogs® & News

Nearby

Air Quality

  Air Quality AQ Index Pollutant
Not available.

Snow Depth

Station Depth Elevation

Earthquake Activity

City Distance Mag. Time & Date
Minimum magnitude displayed is 2.5.

Coastal Water Temperatures

Place Temperature

Nearby Weather Stations